sensor_id;sensor_type;location;lat;lon;timestamp;P1;durP1;ratioP1;P2;durP2;ratioP2
19879;SDS011;10102;50.828;4.416;2023-09-18T00:00:54;9.40;;;5.03;;
19879;SDS011;10102;50.828;4.416;2023-09-18T00:03:23;7.10;;;5.15;;
19879;SDS011;10102;50.828;4.416;2023-09-18T00:05:52;8.88;;;5.38;;
19879;SDS011;10102;50.828;4.416;2023-09-18T00:08:18;8.52;;;5.22;;
19879;SDS011;10102;50.828;4.416;2023-09-18T00:10:51;10.95;;;6.28;;
19879;SDS011;10102;50.828;4.416;2023-09-18T00:13:19;9.00;;;5.25;;
19879;SDS011;10102;50.828;4.416;2023-09-18T00:15:45;8.75;;;5.28;;
19879;SDS011;10102;50.828;4.416;2023-09-18T00:18:14;15.82;;;5.80;;
19879;SDS011;10102;50.828;4.416;2023-09-18T00:20:41;6.47;;;5.45;;
19879;SDS011;10102;50.828;4.416;2023-09-18T00:23:08;11.05;;;5.72;;
19879;SDS011;10102;50.828;4.416;2023-09-18T00:25:34;11.65;;;6.13;;
19879;SDS011;10102;50.828;4.416;2023-09-18T00:28:00;14.00;;;5.63;;
19879;SDS011;10102;50.828;4.416;2023-09-18T00:30:26;8.13;;;5.65;;
19879;SDS011;10102;50.828;4.416;2023-09-18T00:32:51;15.73;;;5.80;;
19879;SDS011;10102;50.828;4.416;2023-09-18T00:35:17;10.23;;;6.32;;
19879;SDS011;10102;50.828;4.416;2023-09-18T00:37:44;8.80;;;5.90;;
19879;SDS011;10102;50.828;4.416;2023-09-18T00:40:10;10.18;;;5.95;;
19879;SDS011;10102;50.828;4.416;2023-09-18T00:42:36;8.48;;;5.82;;
19879;SDS011;10102;50.828;4.416;2023-09-18T00:45:02;11.40;;;6.13;;
19879;SDS011;10102;50.828;4.416;2023-09-18T00:47:28;11.90;;;6.15;;
19879;SDS011;10102;50.828;4.416;2023-09-18T00:49:54;10.98;;;6.10;;
19879;SDS011;10102;50.828;4.416;2023-09-18T00:52:21;10.48;;;7.15;;
19879;SDS011;10102;50.828;4.416;2023-09-18T00:54:48;10.00;;;6.57;;
19879;SDS011;10102;50.828;4.416;2023-09-18T00:57:15;13.02;;;6.82;;
19879;SDS011;10102;50.828;4.416;2023-09-18T00:59:41;9.13;;;7.22;;
19879;SDS011;10102;50.828;4.416;2023-09-18T01:02:07;11.25;;;7.95;;
19879;SDS011;10102;50.828;4.416;2023-09-18T01:04:33;12.23;;;8.38;;
19879;SDS011;10102;50.828;4.416;2023-09-18T01:07:00;14.30;;;7.38;;
19879;SDS011;10102;50.828;4.416;2023-09-18T01:09:30;10.20;;;6.78;;
19879;SDS011;10102;50.828;4.416;2023-09-18T01:12:11;14.85;;;7.43;;
19879;SDS011;10102;50.828;4.416;2023-09-18T01:15:07;11.07;;;6.82;;
19879;SDS011;10102;50.828;4.416;2023-09-18T01:17:44;12.75;;;6.70;;
19879;SDS011;10102;50.828;4.416;2023-09-18T01:20:11;11.48;;;6.80;;
19879;SDS011;10102;50.828;4.416;2023-09-18T01:22:37;11.07;;;6.55;;
19879;SDS011;10102;50.828;4.416;2023-09-18T01:25:03;9.15;;;6.68;;
19879;SDS011;10102;50.828;4.416;2023-09-18T01:27:31;9.35;;;6.65;;
19879;SDS011;10102;50.828;4.416;2023-09-18T01:29:58;10.20;;;6.95;;
19879;SDS011;10102;50.828;4.416;2023-09-18T01:32:24;9.23;;;6.30;;
19879;SDS011;10102;50.828;4.416;2023-09-18T01:34:54;9.77;;;6.65;;
19879;SDS011;10102;50.828;4.416;2023-09-18T01:37:25;8.48;;;5.75;;
19879;SDS011;10102;50.828;4.416;2023-09-18T01:39:54;8.77;;;6.00;;
19879;SDS011;10102;50.828;4.416;2023-09-18T01:42:24;11.27;;;6.65;;
19879;SDS011;10102;50.828;4.416;2023-09-18T01:44:52;10.82;;;6.03;;
19879;SDS011;10102;50.828;4.416;2023-09-18T01:47:19;8.48;;;5.55;;
19879;SDS011;10102;50.828;4.416;2023-09-18T01:49:48;10.65;;;6.10;;
19879;SDS011;10102;50.828;4.416;2023-09-18T01:52:14;10.95;;;5.82;;
19879;SDS011;10102;50.828;4.416;2023-09-18T01:54:40;7.65;;;6.15;;
19879;SDS011;10102;50.828;4.416;2023-09-18T01:57:07;10.05;;;5.60;;
19879;SDS011;10102;50.828;4.416;2023-09-18T01:59:33;8.90;;;5.38;;
19879;SDS011;10102;50.828;4.416;2023-09-18T02:02:00;7.45;;;5.93;;
19879;SDS011;10102;50.828;4.416;2023-09-18T02:04:28;8.32;;;5.90;;
19879;SDS011;10102;50.828;4.416;2023-09-18T02:06:55;10.93;;;6.13;;
19879;SDS011;10102;50.828;4.416;2023-09-18T02:09:22;9.45;;;5.65;;
19879;SDS011;10102;50.828;4.416;2023-09-18T02:11:48;9.25;;;5.10;;
19879;SDS011;10102;50.828;4.416;2023-09-18T02:14:14;10.52;;;6.60;;
19879;SDS011;10102;50.828;4.416;2023-09-18T02:16:41;12.02;;;6.55;;
19879;SDS011;10102;50.828;4.416;2023-09-18T02:19:08;8.88;;;5.57;;
19879;SDS011;10102;50.828;4.416;2023-09-18T02:21:35;10.75;;;5.95;;
19879;SDS011;10102;50.828;4.416;2023-09-18T02:24:02;11.73;;;6.20;;
19879;SDS011;10102;50.828;4.416;2023-09-18T02:26:28;15.15;;;6.65;;
19879;SDS011;10102;50.828;4.416;2023-09-18T02:28:55;7.53;;;6.05;;
19879;SDS011;10102;50.828;4.416;2023-09-18T02:31:23;8.98;;;6.47;;
19879;SDS011;10102;50.828;4.416;2023-09-18T02:33:48;9.45;;;5.63;;
19879;SDS011;10102;50.828;4.416;2023-09-18T02:36:15;10.25;;;5.55;;
19879;SDS011;10102;50.828;4.416;2023-09-18T02:38:41;11.82;;;5.90;;
19879;SDS011;10102;50.828;4.416;2023-09-18T02:41:08;10.60;;;5.70;;
19879;SDS011;10102;50.828;4.416;2023-09-18T02:43:33;11.02;;;5.47;;
19879;SDS011;10102;50.828;4.416;2023-09-18T02:45:59;7.22;;;5.18;;
19879;SDS011;10102;50.828;4.416;2023-09-18T02:48:25;14.85;;;5.15;;
19879;SDS011;10102;50.828;4.416;2023-09-18T02:50:51;11.23;;;4.55;;
19879;SDS011;10102;50.828;4.416;2023-09-18T02:53:18;8.60;;;4.20;;
19879;SDS011;10102;50.828;4.416;2023-09-18T02:55:46;13.38;;;3.85;;
19879;SDS011;10102;50.828;4.416;2023-09-18T02:58:13;5.15;;;3.42;;
19879;SDS011;10102;50.828;4.416;2023-09-18T03:00:42;5.93;;;3.25;;
19879;SDS011;10102;50.828;4.416;2023-09-18T03:03:09;7.15;;;3.35;;
19879;SDS011;10102;50.828;4.416;2023-09-18T03:05:36;5.80;;;3.00;;
19879;SDS011;10102;50.828;4.416;2023-09-18T03:08:03;7.20;;;3.05;;
19879;SDS011;10102;50.828;4.416;2023-09-18T03:10:32;4.57;;;2.83;;
19879;SDS011;10102;50.828;4.416;2023-09-18T03:12:59;4.60;;;2.30;;
19879;SDS011;10102;50.828;4.416;2023-09-18T03:15:29;3.40;;;2.47;;
19879;SDS011;10102;50.828;4.416;2023-09-18T03:17:55;4.20;;;2.20;;
19879;SDS011;10102;50.828;4.416;2023-09-18T03:20:26;5.20;;;2.05;;
19879;SDS011;10102;50.828;4.416;2023-09-18T03:22:55;5.22;;;2.55;;
19879;SDS011;10102;50.828;4.416;2023-09-18T03:25:25;11.07;;;2.53;;
19879;SDS011;10102;50.828;4.416;2023-09-18T03:27:52;5.40;;;2.28;;
19879;SDS011;10102;50.828;4.416;2023-09-18T03:30:19;4.60;;;2.45;;
19879;SDS011;10102;50.828;4.416;2023-09-18T03:32:46;3.70;;;2.67;;
19879;SDS011;10102;50.828;4.416;2023-09-18T03:35:13;5.07;;;2.50;;
19879;SDS011;10102;50.828;4.416;2023-09-18T03:40:11;5.82;;;2.63;;
19879;SDS011;10102;50.828;4.416;2023-09-18T03:42:37;3.83;;;2.40;;
19879;SDS011;10102;50.828;4.416;2023-09-18T03:45:05;7.53;;;2.83;;
19879;SDS011;10102;50.828;4.416;2023-09-18T03:47:32;6.53;;;2.88;;
19879;SDS011;10102;50.828;4.416;2023-09-18T03:50:01;4.90;;;2.85;;
19879;SDS011;10102;50.828;4.416;2023-09-18T03:52:27;6.15;;;3.42;;
19879;SDS011;10102;50.828;4.416;2023-09-18T03:54:53;6.28;;;2.92;;
19879;SDS011;10102;50.828;4.416;2023-09-18T03:57:19;5.22;;;3.08;;
19879;SDS011;10102;50.828;4.416;2023-09-18T03:59:45;9.25;;;2.95;;
19879;SDS011;10102;50.828;4.416;2023-09-18T04:02:10;3.97;;;2.33;;
19879;SDS011;10102;50.828;4.416;2023-09-18T04:04:36;4.80;;;3.17;;
19879;SDS011;10102;50.828;4.416;2023-09-18T04:07:05;6.95;;;2.50;;
19879;SDS011;10102;50.828;4.416;2023-09-18T04:09:31;6.88;;;2.42;;
19879;SDS011;10102;50.828;4.416;2023-09-18T04:12:00;3.42;;;2.47;;
19879;SDS011;10102;50.828;4.416;2023-09-18T04:14:26;3.65;;;1.85;;
19879;SDS011;10102;50.828;4.416;2023-09-18T04:16:52;8.20;;;2.50;;
19879;SDS011;10102;50.828;4.416;2023-09-18T04:19:18;11.85;;;2.85;;
19879;SDS011;10102;50.828;4.416;2023-09-18T04:21:44;4.10;;;2.40;;
19879;SDS011;10102;50.828;4.416;2023-09-18T04:24:10;4.07;;;2.28;;
19879;SDS011;10102;50.828;4.416;2023-09-18T04:26:36;3.00;;;2.40;;
19879;SDS011;10102;50.828;4.416;2023-09-18T04:29:03;3.60;;;2.25;;
19879;SDS011;10102;50.828;4.416;2023-09-18T04:31:28;4.47;;;2.22;;
19879;SDS011;10102;50.828;4.416;2023-09-18T04:33:55;3.15;;;2.20;;
19879;SDS011;10102;50.828;4.416;2023-09-18T04:36:21;3.08;;;2.05;;
19879;SDS011;10102;50.828;4.416;2023-09-18T04:38:47;3.17;;;1.88;;
19879;SDS011;10102;50.828;4.416;2023-09-18T04:41:13;3.40;;;1.95;;
19879;SDS011;10102;50.828;4.416;2023-09-18T04:43:40;6.80;;;2.63;;
19879;SDS011;10102;50.828;4.416;2023-09-18T04:46:07;5.72;;;1.70;;
19879;SDS011;10102;50.828;4.416;2023-09-18T04:48:34;3.92;;;1.73;;
19879;SDS011;10102;50.828;4.416;2023-09-18T04:51:00;2.78;;;1.90;;
19879;SDS011;10102;50.828;4.416;2023-09-18T04:53:28;3.20;;;2.00;;
19879;SDS011;10102;50.828;4.416;2023-09-18T04:55:56;6.97;;;1.65;;
19879;SDS011;10102;50.828;4.416;2023-09-18T04:58:22;5.55;;;1.90;;
19879;SDS011;10102;50.828;4.416;2023-09-18T05:00:55;6.97;;;1.77;;
19879;SDS011;10102;50.828;4.416;2023-09-18T05:03:23;10.00;;;1.80;;
19879;SDS011;10102;50.828;4.416;2023-09-18T05:05:49;4.05;;;1.60;;
19879;SDS011;10102;50.828;4.416;2023-09-18T05:08:15;4.47;;;1.63;;
19879;SDS011;10102;50.828;4.416;2023-09-18T05:10:41;5.18;;;1.90;;
19879;SDS011;10102;50.828;4.416;2023-09-18T05:13:09;3.97;;;1.80;;
19879;SDS011;10102;50.828;4.416;2023-09-18T05:15:36;4.43;;;1.50;;
19879;SDS011;10102;50.828;4.416;2023-09-18T05:18:02;6.72;;;1.60;;
19879;SDS011;10102;50.828;4.416;2023-09-18T05:20:29;6.18;;;1.88;;
19879;SDS011;10102;50.828;4.416;2023-09-18T05:22:56;2.80;;;1.42;;
19879;SDS011;10102;50.828;4.416;2023-09-18T05:25:24;8.10;;;1.65;;
19879;SDS011;10102;50.828;4.416;2023-09-18T05:27:52;2.15;;;1.55;;
19879;SDS011;10102;50.828;4.416;2023-09-18T05:30:24;2.90;;;1.63;;
19879;SDS011;10102;50.828;4.416;2023-09-18T05:33:00;3.53;;;1.55;;
19879;SDS011;10102;50.828;4.416;2023-09-18T05:35:31;5.03;;;2.00;;
19879;SDS011;10102;50.828;4.416;2023-09-18T05:37:57;4.95;;;1.55;;
19879;SDS011;10102;50.828;4.416;2023-09-18T05:40:24;5.10;;;1.80;;
19879;SDS011;10102;50.828;4.416;2023-09-18T05:42:53;5.07;;;1.90;;
19879;SDS011;10102;50.828;4.416;2023-09-18T05:45:20;6.13;;;1.70;;
19879;SDS011;10102;50.828;4.416;2023-09-18T05:47:46;7.93;;;2.08;;
19879;SDS011;10102;50.828;4.416;2023-09-18T05:50:13;7.28;;;1.73;;
19879;SDS011;10102;50.828;4.416;2023-09-18T05:52:40;4.13;;;1.42;;
19879;SDS011;10102;50.828;4.416;2023-09-18T05:55:07;4.57;;;1.65;;
19879;SDS011;10102;50.828;4.416;2023-09-18T05:57:33;2.92;;;1.60;;
19879;SDS011;10102;50.828;4.416;2023-09-18T06:00:00;5.70;;;1.88;;
19879;SDS011;10102;50.828;4.416;2023-09-18T06:02:27;6.43;;;1.80;;
19879;SDS011;10102;50.828;4.416;2023-09-18T06:04:56;5.28;;;1.58;;
19879;SDS011;10102;50.828;4.416;2023-09-18T06:07:26;2.22;;;1.45;;
19879;SDS011;10102;50.828;4.416;2023-09-18T06:09:52;4.32;;;1.85;;
19879;SDS011;10102;50.828;4.416;2023-09-18T06:12:19;5.22;;;1.77;;
19879;SDS011;10102;50.828;4.416;2023-09-18T06:14:46;4.13;;;1.73;;
19879;SDS011;10102;50.828;4.416;2023-09-18T06:17:13;8.55;;;2.53;;
19879;SDS011;10102;50.828;4.416;2023-09-18T06:19:40;10.23;;;3.15;;
19879;SDS011;10102;50.828;4.416;2023-09-18T06:22:10;5.97;;;1.60;;
19879;SDS011;10102;50.828;4.416;2023-09-18T06:24:36;6.63;;;2.67;;
19879;SDS011;10102;50.828;4.416;2023-09-18T06:27:02;7.28;;;2.08;;
19879;SDS011;10102;50.828;4.416;2023-09-18T06:29:34;14.23;;;4.60;;
19879;SDS011;10102;50.828;4.416;2023-09-18T06:32:03;4.00;;;2.60;;
19879;SDS011;10102;50.828;4.416;2023-09-18T06:34:31;6.50;;;2.13;;
19879;SDS011;10102;50.828;4.416;2023-09-18T06:36:56;4.90;;;2.33;;
19879;SDS011;10102;50.828;4.416;2023-09-18T06:39:22;4.50;;;2.00;;
19879;SDS011;10102;50.828;4.416;2023-09-18T06:41:49;7.38;;;2.90;;
19879;SDS011;10102;50.828;4.416;2023-09-18T06:44:15;7.22;;;2.10;;
19879;SDS011;10102;50.828;4.416;2023-09-18T06:46:41;5.10;;;2.00;;
19879;SDS011;10102;50.828;4.416;2023-09-18T06:49:07;7.55;;;2.60;;
19879;SDS011;10102;50.828;4.416;2023-09-18T06:51:33;7.80;;;3.05;;
19879;SDS011;10102;50.828;4.416;2023-09-18T06:53:59;5.32;;;1.88;;
19879;SDS011;10102;50.828;4.416;2023-09-18T06:56:27;5.88;;;2.47;;
19879;SDS011;10102;50.828;4.416;2023-09-18T06:58:54;5.38;;;2.35;;
19879;SDS011;10102;50.828;4.416;2023-09-18T07:01:20;5.57;;;2.42;;
19879;SDS011;10102;50.828;4.416;2023-09-18T07:03:47;6.35;;;2.60;;
19879;SDS011;10102;50.828;4.416;2023-09-18T07:06:16;5.07;;;3.05;;
19879;SDS011;10102;50.828;4.416;2023-09-18T07:08:43;6.88;;;3.08;;
19879;SDS011;10102;50.828;4.416;2023-09-18T07:11:09;10.45;;;2.67;;
19879;SDS011;10102;50.828;4.416;2023-09-18T07:13:37;7.68;;;3.40;;
19879;SDS011;10102;50.828;4.416;2023-09-18T07:16:03;7.38;;;2.63;;
19879;SDS011;10102;50.828;4.416;2023-09-18T07:18:29;11.45;;;3.60;;
19879;SDS011;10102;50.828;4.416;2023-09-18T07:20:55;12.07;;;2.85;;
19879;SDS011;10102;50.828;4.416;2023-09-18T07:23:21;7.47;;;2.55;;
19879;SDS011;10102;50.828;4.416;2023-09-18T07:25:49;5.13;;;2.58;;
19879;SDS011;10102;50.828;4.416;2023-09-18T07:28:15;7.75;;;2.45;;
19879;SDS011;10102;50.828;4.416;2023-09-18T07:30:46;6.53;;;2.50;;
19879;SDS011;10102;50.828;4.416;2023-09-18T07:33:13;6.03;;;2.60;;
19879;SDS011;10102;50.828;4.416;2023-09-18T07:35:45;3.03;;;2.25;;
19879;SDS011;10102;50.828;4.416;2023-09-18T07:38:12;5.47;;;2.70;;
19879;SDS011;10102;50.828;4.416;2023-09-18T07:40:39;7.53;;;2.63;;
19879;SDS011;10102;50.828;4.416;2023-09-18T07:43:05;4.85;;;2.35;;
19879;SDS011;10102;50.828;4.416;2023-09-18T07:45:31;4.97;;;2.33;;
19879;SDS011;10102;50.828;4.416;2023-09-18T07:47:56;8.30;;;2.42;;
19879;SDS011;10102;50.828;4.416;2023-09-18T07:50:22;6.55;;;2.47;;
19879;SDS011;10102;50.828;4.416;2023-09-18T07:52:48;3.38;;;1.95;;
19879;SDS011;10102;50.828;4.416;2023-09-18T07:55:14;3.83;;;2.58;;
19879;SDS011;10102;50.828;4.416;2023-09-18T07:57:40;4.20;;;2.45;;
19879;SDS011;10102;50.828;4.416;2023-09-18T08:00:06;10.80;;;2.88;;
19879;SDS011;10102;50.828;4.416;2023-09-18T08:02:38;9.10;;;2.67;;
19879;SDS011;10102;50.828;4.416;2023-09-18T08:05:05;6.60;;;2.45;;
19879;SDS011;10102;50.828;4.416;2023-09-18T08:07:31;4.32;;;2.55;;
19879;SDS011;10102;50.828;4.416;2023-09-18T08:09:57;7.50;;;3.05;;
19879;SDS011;10102;50.828;4.416;2023-09-18T08:12:23;6.65;;;2.88;;
19879;SDS011;10102;50.828;4.416;2023-09-18T08:14:49;6.07;;;2.80;;
19879;SDS011;10102;50.828;4.416;2023-09-18T08:17:15;6.35;;;2.60;;
19879;SDS011;10102;50.828;4.416;2023-09-18T08:19:41;9.05;;;2.80;;
19879;SDS011;10102;50.828;4.416;2023-09-18T08:22:09;4.40;;;2.67;;
19879;SDS011;10102;50.828;4.416;2023-09-18T08:24:40;7.22;;;2.72;;
19879;SDS011;10102;50.828;4.416;2023-09-18T08:27:06;5.25;;;2.92;;
19879;SDS011;10102;50.828;4.416;2023-09-18T08:29:32;5.28;;;2.40;;
19879;SDS011;10102;50.828;4.416;2023-09-18T08:31:58;7.30;;;2.55;;
19879;SDS011;10102;50.828;4.416;2023-09-18T08:34:24;7.40;;;2.97;;
19879;SDS011;10102;50.828;4.416;2023-09-18T08:36:50;5.55;;;2.72;;
19879;SDS011;10102;50.828;4.416;2023-09-18T08:39:15;6.85;;;2.90;;
19879;SDS011;10102;50.828;4.416;2023-09-18T08:41:42;9.38;;;3.75;;
19879;SDS011;10102;50.828;4.416;2023-09-18T08:44:09;3.17;;;2.63;;
19879;SDS011;10102;50.828;4.416;2023-09-18T08:46:36;8.32;;;3.10;;
19879;SDS011;10102;50.828;4.416;2023-09-18T08:49:02;5.15;;;3.10;;
19879;SDS011;10102;50.828;4.416;2023-09-18T08:51:30;6.28;;;3.17;;
19879;SDS011;10102;50.828;4.416;2023-09-18T08:53:57;6.35;;;3.20;;
19879;SDS011;10102;50.828;4.416;2023-09-18T08:56:23;6.88;;;3.25;;
19879;SDS011;10102;50.828;4.416;2023-09-18T08:58:49;7.07;;;3.25;;
19879;SDS011;10102;50.828;4.416;2023-09-18T09:01:15;5.82;;;2.90;;
19879;SDS011;10102;50.828;4.416;2023-09-18T09:03:42;5.80;;;3.40;;
19879;SDS011;10102;50.828;4.416;2023-09-18T09:06:10;5.22;;;2.95;;
19879;SDS011;10102;50.828;4.416;2023-09-18T09:08:37;4.50;;;3.47;;
19879;SDS011;10102;50.828;4.416;2023-09-18T09:11:03;10.07;;;3.72;;
19879;SDS011;10102;50.828;4.416;2023-09-18T09:13:29;11.48;;;4.00;;
19879;SDS011;10102;50.828;4.416;2023-09-18T09:15:56;5.25;;;3.92;;
19879;SDS011;10102;50.828;4.416;2023-09-18T09:18:23;8.38;;;4.32;;
19879;SDS011;10102;50.828;4.416;2023-09-18T09:20:55;10.85;;;4.25;;
19879;SDS011;10102;50.828;4.416;2023-09-18T09:23:29;8.10;;;4.00;;
19879;SDS011;10102;50.828;4.416;2023-09-18T09:26:13;8.25;;;3.47;;
19879;SDS011;10102;50.828;4.416;2023-09-18T09:28:42;5.82;;;4.07;;
19879;SDS011;10102;50.828;4.416;2023-09-18T09:31:09;6.00;;;3.70;;
19879;SDS011;10102;50.828;4.416;2023-09-18T09:33:40;10.25;;;4.07;;
19879;SDS011;10102;50.828;4.416;2023-09-18T09:36:22;9.63;;;3.78;;
19879;SDS011;10102;50.828;4.416;2023-09-18T09:38:49;8.48;;;4.03;;
19879;SDS011;10102;50.828;4.416;2023-09-18T09:41:26;7.38;;;3.75;;
19879;SDS011;10102;50.828;4.416;2023-09-18T09:43:53;4.00;;;3.60;;
19879;SDS011;10102;50.828;4.416;2023-09-18T09:46:21;8.00;;;3.80;;
19879;SDS011;10102;50.828;4.416;2023-09-18T09:51:26;4.93;;;3.42;;
19879;SDS011;10102;50.828;4.416;2023-09-18T09:53:53;6.03;;;3.30;;
19879;SDS011;10102;50.828;4.416;2023-09-18T09:56:19;7.85;;;4.20;;
19879;SDS011;10102;50.828;4.416;2023-09-18T09:59:02;8.82;;;3.35;;
19879;SDS011;10102;50.828;4.416;2023-09-18T10:01:34;7.60;;;3.22;;
19879;SDS011;10102;50.828;4.416;2023-09-18T10:04:13;9.35;;;3.60;;
19879;SDS011;10102;50.828;4.416;2023-09-18T10:06:51;7.60;;;3.40;;
19879;SDS011;10102;50.828;4.416;2023-09-18T10:09:20;9.07;;;3.25;;
19879;SDS011;10102;50.828;4.416;2023-09-18T10:11:52;5.50;;;2.83;;
19879;SDS011;10102;50.828;4.416;2023-09-18T10:14:20;8.40;;;3.65;;
19879;SDS011;10102;50.828;4.416;2023-09-18T10:16:54;6.85;;;2.92;;
19879;SDS011;10102;50.828;4.416;2023-09-18T10:19:29;8.90;;;3.15;;
19879;SDS011;10102;50.828;4.416;2023-09-18T10:22:31;7.00;;;2.95;;
19879;SDS011;10102;50.828;4.416;2023-09-18T10:25:13;8.30;;;3.10;;
19879;SDS011;10102;50.828;4.416;2023-09-18T10:27:45;5.57;;;3.30;;
19879;SDS011;10102;50.828;4.416;2023-09-18T10:30:22;6.70;;;3.35;;
19879;SDS011;10102;50.828;4.416;2023-09-18T10:32:48;11.40;;;4.00;;
19879;SDS011;10102;50.828;4.416;2023-09-18T10:35:15;7.03;;;3.30;;
19879;SDS011;10102;50.828;4.416;2023-09-18T10:37:42;9.05;;;2.95;;
19879;SDS011;10102;50.828;4.416;2023-09-18T10:40:11;6.70;;;3.38;;
19879;SDS011;10102;50.828;4.416;2023-09-18T10:42:38;10.25;;;3.50;;
19879;SDS011;10102;50.828;4.416;2023-09-18T10:45:05;5.32;;;2.92;;
19879;SDS011;10102;50.828;4.416;2023-09-18T10:47:36;8.93;;;3.53;;
19879;SDS011;10102;50.828;4.416;2023-09-18T10:50:06;8.73;;;3.42;;
19879;SDS011;10102;50.828;4.416;2023-09-18T10:52:35;5.07;;;3.03;;
19879;SDS011;10102;50.828;4.416;2023-09-18T10:55:03;7.40;;;2.72;;
19879;SDS011;10102;50.828;4.416;2023-09-18T10:57:33;7.72;;;2.95;;
19879;SDS011;10102;50.828;4.416;2023-09-18T11:00:03;8.77;;;2.90;;
19879;SDS011;10102;50.828;4.416;2023-09-18T11:02:40;6.78;;;2.20;;
19879;SDS011;10102;50.828;4.416;2023-09-18T11:05:06;4.88;;;2.47;;
19879;SDS011;10102;50.828;4.416;2023-09-18T11:07:32;5.90;;;2.55;;
19879;SDS011;10102;50.828;4.416;2023-09-18T11:09:58;8.48;;;2.90;;
19879;SDS011;10102;50.828;4.416;2023-09-18T11:12:42;5.22;;;2.53;;
19879;SDS011;10102;50.828;4.416;2023-09-18T11:15:09;6.45;;;2.25;;
19879;SDS011;10102;50.828;4.416;2023-09-18T11:17:59;4.75;;;2.78;;
19879;SDS011;10102;50.828;4.416;2023-09-18T11:20:28;6.13;;;2.33;;
19879;SDS011;10102;50.828;4.416;2023-09-18T11:30:50;5.68;;;2.10;;
19879;SDS011;10102;50.828;4.416;2023-09-18T11:33:32;6.03;;;2.28;;
19879;SDS011;10102;50.828;4.416;2023-09-18T11:36:03;9.82;;;2.33;;
19879;SDS011;10102;50.828;4.416;2023-09-18T11:38:32;4.88;;;2.50;;
19879;SDS011;10102;50.828;4.416;2023-09-18T11:40:59;5.22;;;2.70;;
19879;SDS011;10102;50.828;4.416;2023-09-18T11:43:28;4.45;;;2.47;;
19879;SDS011;10102;50.828;4.416;2023-09-18T11:45:58;4.03;;;2.38;;
19879;SDS011;10102;50.828;4.416;2023-09-18T11:48:27;4.93;;;2.13;;
19879;SDS011;10102;50.828;4.416;2023-09-18T11:50:55;2.97;;;1.98;;
19879;SDS011;10102;50.828;4.416;2023-09-18T11:53:23;4.78;;;2.42;;
19879;SDS011;10102;50.828;4.416;2023-09-18T11:55:51;6.22;;;2.30;;
19879;SDS011;10102;50.828;4.416;2023-09-18T11:58:17;6.20;;;1.90;;
19879;SDS011;10102;50.828;4.416;2023-09-18T12:00:48;3.15;;;2.30;;
19879;SDS011;10102;50.828;4.416;2023-09-18T12:03:20;6.50;;;2.35;;
19879;SDS011;10102;50.828;4.416;2023-09-18T12:06:00;4.60;;;2.03;;
19879;SDS011;10102;50.828;4.416;2023-09-18T12:08:32;4.15;;;1.90;;
19879;SDS011;10102;50.828;4.416;2023-09-18T12:10:58;4.07;;;1.92;;
19879;SDS011;10102;50.828;4.416;2023-09-18T12:13:24;6.88;;;2.38;;
19879;SDS011;10102;50.828;4.416;2023-09-18T12:18:30;5.60;;;1.90;;
19879;SDS011;10102;50.828;4.416;2023-09-18T12:21:05;2.15;;;1.80;;
19879;SDS011;10102;50.828;4.416;2023-09-18T12:23:41;3.67;;;1.77;;
19879;SDS011;10102;50.828;4.416;2023-09-18T12:26:10;4.18;;;2.20;;
19879;SDS011;10102;50.828;4.416;2023-09-18T12:28:40;4.60;;;2.08;;
19879;SDS011;10102;50.828;4.416;2023-09-18T12:31:14;3.85;;;1.70;;
19879;SDS011;10102;50.828;4.416;2023-09-18T12:33:41;5.28;;;1.75;;
19879;SDS011;10102;50.828;4.416;2023-09-18T12:36:12;5.00;;;1.85;;
19879;SDS011;10102;50.828;4.416;2023-09-18T12:38:45;4.78;;;2.25;;
19879;SDS011;10102;50.828;4.416;2023-09-18T12:41:21;5.20;;;2.13;;
19879;SDS011;10102;50.828;4.416;2023-09-18T12:43:49;4.25;;;2.10;;
19879;SDS011;10102;50.828;4.416;2023-09-18T12:46:15;5.53;;;1.95;;
19879;SDS011;10102;50.828;4.416;2023-09-18T12:48:41;4.85;;;2.00;;
19879;SDS011;10102;50.828;4.416;2023-09-18T12:51:11;4.50;;;1.77;;
19879;SDS011;10102;50.828;4.416;2023-09-18T12:53:38;4.80;;;2.20;;
19879;SDS011;10102;50.828;4.416;2023-09-18T12:56:05;4.38;;;1.90;;
19879;SDS011;10102;50.828;4.416;2023-09-18T12:58:37;10.32;;;2.22;;
19879;SDS011;10102;50.828;4.416;2023-09-18T13:01:08;2.67;;;1.55;;
19879;SDS011;10102;50.828;4.416;2023-09-18T13:03:46;7.95;;;2.03;;
19879;SDS011;10102;50.828;4.416;2023-09-18T13:06:15;6.65;;;2.00;;
19879;SDS011;10102;50.828;4.416;2023-09-18T13:08:42;7.13;;;2.60;;
19879;SDS011;10102;50.828;4.416;2023-09-18T13:11:09;5.95;;;1.70;;
19879;SDS011;10102;50.828;4.416;2023-09-18T13:13:37;7.25;;;1.90;;
19879;SDS011;10102;50.828;4.416;2023-09-18T13:16:07;6.35;;;1.80;;
19879;SDS011;10102;50.828;4.416;2023-09-18T13:18:37;4.25;;;1.60;;
19879;SDS011;10102;50.828;4.416;2023-09-18T13:21:10;7.55;;;2.08;;
19879;SDS011;10102;50.828;4.416;2023-09-18T13:23:39;9.75;;;1.75;;
19879;SDS011;10102;50.828;4.416;2023-09-18T13:26:05;5.25;;;2.20;;
19879;SDS011;10102;50.828;4.416;2023-09-18T13:28:35;4.45;;;2.42;;
19879;SDS011;10102;50.828;4.416;2023-09-18T13:31:02;5.18;;;2.20;;
19879;SDS011;10102;50.828;4.416;2023-09-18T13:33:32;6.43;;;2.00;;
19879;SDS011;10102;50.828;4.416;2023-09-18T13:36:03;5.45;;;1.80;;
19879;SDS011;10102;50.828;4.416;2023-09-18T13:38:28;5.70;;;1.98;;
19879;SDS011;10102;50.828;4.416;2023-09-18T13:40:54;6.45;;;1.90;;
19879;SDS011;10102;50.828;4.416;2023-09-18T13:43:20;7.15;;;1.70;;
19879;SDS011;10102;50.828;4.416;2023-09-18T13:45:48;5.95;;;1.50;;
19879;SDS011;10102;50.828;4.416;2023-09-18T13:48:17;7.80;;;2.03;;
19879;SDS011;10102;50.828;4.416;2023-09-18T13:50:44;5.78;;;1.70;;
19879;SDS011;10102;50.828;4.416;2023-09-18T13:53:10;4.10;;;2.05;;
19879;SDS011;10102;50.828;4.416;2023-09-18T13:55:36;4.35;;;1.70;;
19879;SDS011;10102;50.828;4.416;2023-09-18T13:58:02;7.85;;;1.70;;
19879;SDS011;10102;50.828;4.416;2023-09-18T14:00:28;4.50;;;2.05;;
19879;SDS011;10102;50.828;4.416;2023-09-18T14:02:54;8.38;;;2.00;;
19879;SDS011;10102;50.828;4.416;2023-09-18T14:05:20;4.18;;;1.75;;
19879;SDS011;10102;50.828;4.416;2023-09-18T14:07:46;3.72;;;2.45;;
19879;SDS011;10102;50.828;4.416;2023-09-18T14:10:12;4.25;;;1.83;;
19879;SDS011;10102;50.828;4.416;2023-09-18T14:12:39;6.63;;;2.17;;
19879;SDS011;10102;50.828;4.416;2023-09-18T14:15:06;4.40;;;1.95;;
19879;SDS011;10102;50.828;4.416;2023-09-18T14:17:36;7.80;;;2.15;;
19879;SDS011;10102;50.828;4.416;2023-09-18T14:20:03;9.80;;;1.90;;
19879;SDS011;10102;50.828;4.416;2023-09-18T14:22:35;5.68;;;2.13;;
19879;SDS011;10102;50.828;4.416;2023-09-18T14:25:02;3.70;;;2.08;;
19879;SDS011;10102;50.828;4.416;2023-09-18T14:27:31;2.72;;;1.88;;
19879;SDS011;10102;50.828;4.416;2023-09-18T14:29:57;4.30;;;1.70;;
19879;SDS011;10102;50.828;4.416;2023-09-18T14:32:23;4.97;;;2.03;;
19879;SDS011;10102;50.828;4.416;2023-09-18T14:34:49;2.63;;;1.80;;
19879;SDS011;10102;50.828;4.416;2023-09-18T14:37:15;3.95;;;2.08;;
19879;SDS011;10102;50.828;4.416;2023-09-18T14:39:41;6.68;;;2.15;;
19879;SDS011;10102;50.828;4.416;2023-09-18T14:42:08;4.13;;;2.38;;
19879;SDS011;10102;50.828;4.416;2023-09-18T14:44:35;6.13;;;3.03;;
19879;SDS011;10102;50.828;4.416;2023-09-18T14:47:01;7.18;;;3.20;;
19879;SDS011;10102;50.828;4.416;2023-09-18T14:49:27;13.88;;;3.45;;
19879;SDS011;10102;50.828;4.416;2023-09-18T14:51:53;5.57;;;2.90;;
19879;SDS011;10102;50.828;4.416;2023-09-18T14:54:20;9.85;;;2.72;;
19879;SDS011;10102;50.828;4.416;2023-09-18T14:56:46;6.28;;;2.72;;
19879;SDS011;10102;50.828;4.416;2023-09-18T14:59:12;4.30;;;2.33;;
19879;SDS011;10102;50.828;4.416;2023-09-18T15:01:38;8.55;;;2.40;;
19879;SDS011;10102;50.828;4.416;2023-09-18T15:04:04;7.05;;;2.20;;
19879;SDS011;10102;50.828;4.416;2023-09-18T15:06:30;8.07;;;2.10;;